OIZI  Iran Shahr  Airport

Iran

Add Bookmark
Status
Operational
Latitude Longitude
27° 14' 9" N 60° 43' 12" E
27.236099 60.720001
Local (DST + 5) UTC (GMT + 4)
Mar 31, 2015 10:34 Mar 31, 2015 18:04
Sunrise-Sunset Local UTC
Begin Civil Twilight 05:54 01:24
Sunrise 06:17 01:47
Sunset 06:44 14:14
End Civil Twilight 07:08 14:38
VFR
VFR
MVFR
MVFR
IFR
VFR
LIFR
VFR
Unknown
Unavailable

Current Weather

METAR Observed MVFR
OIZI 311700Z 30004KT 8000 FEW040 OVC200 29/05 Q1010 Tue, Mar 31, 2015 @ 17:00 UTC
(1 Hour, 4 Minutes ago)
Marginal Visual Flight Rules
Wind Visibility Clouds Conditions
300° at 4 knots (7 kph) 8000 meters
  • Few at 4,000' AGL
  • Overcast at 20,000' AGL
  • No significant weather
Temperatures Readings Precipitation
Current Temp 29°C (84°F)
Dewpoint 5°C (41°F)
Humidity 22%
Altimeter 29.82"Hg
Sea Level Pressure 1010mb
Field Elevation 1938.98'
None Recorded
-
-

CheckWX.com is intended as a tool to help pilots better visualize weather data. It is not intended as a substitute for an official weather briefing obtained from a Flight Service Station. CheckWX.com does not meet the FAA requirements for an official pre-flight weather briefing. Therefore, it's important that pilots still call and obtain an official FSS pre-flight weather briefing.